sensor_id;sensor_type;location;lat;lon;timestamp;P1;durP1;ratioP1;P2;durP2;ratioP2
44204;SDS011;30163;42.698;23.344;2023-08-17T00:01:50;22.15;;;10.73;;
44204;SDS011;30163;42.698;23.344;2023-08-17T00:04:16;18.95;;;10.60;;
44204;SDS011;30163;42.698;23.344;2023-08-17T00:06:41;32.47;;;11.23;;
44204;SDS011;30163;42.698;23.344;2023-08-17T00:09:07;20.05;;;10.15;;
44204;SDS011;30163;42.698;23.344;2023-08-17T00:11:33;27.33;;;10.77;;
44204;SDS011;30163;42.698;23.344;2023-08-17T00:13:59;20.77;;;9.95;;
44204;SDS011;30163;42.698;23.344;2023-08-17T00:16:25;21.02;;;9.57;;
44204;SDS011;30163;42.698;23.344;2023-08-17T00:18:50;24.00;;;9.75;;
44204;SDS011;30163;42.698;23.344;2023-08-17T00:21:15;16.83;;;8.98;;
44204;SDS011;30163;42.698;23.344;2023-08-17T00:23:41;17.45;;;9.45;;
44204;SDS011;30163;42.698;23.344;2023-08-17T00:26:08;24.83;;;9.38;;
44204;SDS011;30163;42.698;23.344;2023-08-17T00:28:33;22.15;;;9.38;;
44204;SDS011;30163;42.698;23.344;2023-08-17T00:31:01;20.10;;;8.45;;
44204;SDS011;30163;42.698;23.344;2023-08-17T00:33:27;26.20;;;9.77;;
44204;SDS011;30163;42.698;23.344;2023-08-17T00:35:53;22.95;;;9.95;;
44204;SDS011;30163;42.698;23.344;2023-08-17T00:38:18;26.25;;;8.82;;
44204;SDS011;30163;42.698;23.344;2023-08-17T00:40:44;14.55;;;8.00;;
44204;SDS011;30163;42.698;23.344;2023-08-17T00:43:09;19.33;;;8.82;;
44204;SDS011;30163;42.698;23.344;2023-08-17T00:45:35;34.83;;;10.10;;
44204;SDS011;30163;42.698;23.344;2023-08-17T00:48:00;23.13;;;8.85;;
44204;SDS011;30163;42.698;23.344;2023-08-17T00:50:26;13.60;;;8.93;;
44204;SDS011;30163;42.698;23.344;2023-08-17T00:52:53;27.73;;;10.30;;
44204;SDS011;30163;42.698;23.344;2023-08-17T00:55:18;20.95;;;8.52;;
44204;SDS011;30163;42.698;23.344;2023-08-17T00:57:45;20.80;;;9.38;;
44204;SDS011;30163;42.698;23.344;2023-08-17T01:00:11;17.05;;;8.48;;
44204;SDS011;30163;42.698;23.344;2023-08-17T01:02:38;12.82;;;7.60;;
44204;SDS011;30163;42.698;23.344;2023-08-17T01:05:04;20.35;;;8.30;;
44204;SDS011;30163;42.698;23.344;2023-08-17T01:07:31;18.15;;;6.88;;
44204;SDS011;30163;42.698;23.344;2023-08-17T01:09:56;18.05;;;8.02;;
44204;SDS011;30163;42.698;23.344;2023-08-17T01:12:29;18.45;;;7.97;;
44204;SDS011;30163;42.698;23.344;2023-08-17T01:15:04;27.15;;;8.98;;
44204;SDS011;30163;42.698;23.344;2023-08-17T01:20:24;18.13;;;7.80;;
44204;SDS011;30163;42.698;23.344;2023-08-17T01:22:50;13.68;;;7.45;;
44204;SDS011;30163;42.698;23.344;2023-08-17T01:25:17;15.45;;;7.97;;
44204;SDS011;30163;42.698;23.344;2023-08-17T01:27:44;16.70;;;7.65;;
44204;SDS011;30163;42.698;23.344;2023-08-17T01:30:10;20.45;;;7.07;;
44204;SDS011;30163;42.698;23.344;2023-08-17T01:32:39;15.23;;;8.80;;
44204;SDS011;30163;42.698;23.344;2023-08-17T01:35:16;16.02;;;8.07;;
44204;SDS011;30163;42.698;23.344;2023-08-17T01:37:47;18.10;;;7.60;;
44204;SDS011;30163;42.698;23.344;2023-08-17T01:40:12;19.80;;;8.07;;
44204;SDS011;30163;42.698;23.344;2023-08-17T01:42:39;21.88;;;8.35;;
44204;SDS011;30163;42.698;23.344;2023-08-17T01:45:05;23.30;;;8.30;;
44204;SDS011;30163;42.698;23.344;2023-08-17T01:47:31;20.70;;;8.68;;
44204;SDS011;30163;42.698;23.344;2023-08-17T01:49:57;18.52;;;7.85;;
44204;SDS011;30163;42.698;23.344;2023-08-17T01:52:25;11.57;;;7.80;;
44204;SDS011;30163;42.698;23.344;2023-08-17T01:54:51;24.33;;;8.18;;
44204;SDS011;30163;42.698;23.344;2023-08-17T01:57:17;15.85;;;7.50;;
44204;SDS011;30163;42.698;23.344;2023-08-17T01:59:42;15.60;;;8.65;;
44204;SDS011;30163;42.698;23.344;2023-08-17T02:02:08;20.05;;;8.90;;
44204;SDS011;30163;42.698;23.344;2023-08-17T02:04:33;22.25;;;8.55;;
44204;SDS011;30163;42.698;23.344;2023-08-17T02:06:58;20.42;;;8.23;;
44204;SDS011;30163;42.698;23.344;2023-08-17T02:09:24;19.80;;;9.20;;
44204;SDS011;30163;42.698;23.344;2023-08-17T02:11:49;18.58;;;8.30;;
44204;SDS011;30163;42.698;23.344;2023-08-17T02:14:15;17.58;;;8.32;;
44204;SDS011;30163;42.698;23.344;2023-08-17T02:16:40;16.42;;;8.77;;
44204;SDS011;30163;42.698;23.344;2023-08-17T02:19:05;25.20;;;8.63;;
44204;SDS011;30163;42.698;23.344;2023-08-17T02:21:31;17.55;;;9.68;;
44204;SDS011;30163;42.698;23.344;2023-08-17T02:23:56;17.25;;;8.38;;
44204;SDS011;30163;42.698;23.344;2023-08-17T02:26:22;16.83;;;9.10;;
44204;SDS011;30163;42.698;23.344;2023-08-17T02:28:47;23.35;;;10.70;;
44204;SDS011;30163;42.698;23.344;2023-08-17T02:31:12;26.40;;;10.40;;
44204;SDS011;30163;42.698;23.344;2023-08-17T02:33:56;18.92;;;9.25;;
44204;SDS011;30163;42.698;23.344;2023-08-17T02:36:30;15.75;;;8.75;;
44204;SDS011;30163;42.698;23.344;2023-08-17T02:38:56;24.02;;;8.75;;
44204;SDS011;30163;42.698;23.344;2023-08-17T02:41:21;19.63;;;8.70;;
44204;SDS011;30163;42.698;23.344;2023-08-17T02:43:47;15.35;;;7.70;;
44204;SDS011;30163;42.698;23.344;2023-08-17T02:46:12;16.55;;;7.88;;
44204;SDS011;30163;42.698;23.344;2023-08-17T02:48:38;14.85;;;8.00;;
44204;SDS011;30163;42.698;23.344;2023-08-17T02:51:03;20.90;;;7.97;;
44204;SDS011;30163;42.698;23.344;2023-08-17T02:53:28;19.25;;;7.55;;
44204;SDS011;30163;42.698;23.344;2023-08-17T02:55:54;35.83;;;7.60;;
44204;SDS011;30163;42.698;23.344;2023-08-17T02:58:19;14.73;;;7.30;;
44204;SDS011;30163;42.698;23.344;2023-08-17T03:00:45;15.77;;;7.53;;
44204;SDS011;30163;42.698;23.344;2023-08-17T03:03:10;16.10;;;7.32;;
44204;SDS011;30163;42.698;23.344;2023-08-17T03:05:36;22.25;;;7.63;;
44204;SDS011;30163;42.698;23.344;2023-08-17T03:08:01;12.85;;;7.10;;
44204;SDS011;30163;42.698;23.344;2023-08-17T03:10:26;16.45;;;8.65;;
44204;SDS011;30163;42.698;23.344;2023-08-17T03:12:52;20.35;;;9.07;;
44204;SDS011;30163;42.698;23.344;2023-08-17T03:15:17;15.70;;;7.60;;
44204;SDS011;30163;42.698;23.344;2023-08-17T03:17:43;16.65;;;7.90;;
44204;SDS011;30163;42.698;23.344;2023-08-17T03:20:08;22.23;;;7.72;;
44204;SDS011;30163;42.698;23.344;2023-08-17T03:22:34;16.13;;;8.00;;
44204;SDS011;30163;42.698;23.344;2023-08-17T03:25:00;18.27;;;7.95;;
44204;SDS011;30163;42.698;23.344;2023-08-17T03:27:25;27.55;;;8.32;;
44204;SDS011;30163;42.698;23.344;2023-08-17T03:29:51;20.98;;;8.30;;
44204;SDS011;30163;42.698;23.344;2023-08-17T03:32:17;15.02;;;8.13;;
44204;SDS011;30163;42.698;23.344;2023-08-17T03:34:42;19.00;;;8.75;;
44204;SDS011;30163;42.698;23.344;2023-08-17T03:37:08;25.40;;;9.38;;
44204;SDS011;30163;42.698;23.344;2023-08-17T03:39:33;19.30;;;8.13;;
44204;SDS011;30163;42.698;23.344;2023-08-17T03:41:58;16.20;;;7.93;;
44204;SDS011;30163;42.698;23.344;2023-08-17T03:44:24;30.70;;;8.98;;
44204;SDS011;30163;42.698;23.344;2023-08-17T03:46:49;24.85;;;9.32;;
44204;SDS011;30163;42.698;23.344;2023-08-17T03:49:15;21.73;;;9.35;;
44204;SDS011;30163;42.698;23.344;2023-08-17T03:51:41;29.38;;;10.18;;
44204;SDS011;30163;42.698;23.344;2023-08-17T03:54:07;20.88;;;9.00;;
44204;SDS011;30163;42.698;23.344;2023-08-17T03:56:32;20.45;;;9.32;;
44204;SDS011;30163;42.698;23.344;2023-08-17T03:58:58;18.80;;;8.27;;
44204;SDS011;30163;42.698;23.344;2023-08-17T04:01:23;26.77;;;8.48;;
44204;SDS011;30163;42.698;23.344;2023-08-17T04:03:48;27.42;;;8.68;;
44204;SDS011;30163;42.698;23.344;2023-08-17T04:06:14;19.48;;;8.30;;
44204;SDS011;30163;42.698;23.344;2023-08-17T04:08:39;34.15;;;8.48;;
44204;SDS011;30163;42.698;23.344;2023-08-17T04:11:05;28.95;;;8.90;;
44204;SDS011;30163;42.698;23.344;2023-08-17T04:13:30;20.92;;;7.30;;
44204;SDS011;30163;42.698;23.344;2023-08-17T04:15:56;20.15;;;7.72;;
44204;SDS011;30163;42.698;23.344;2023-08-17T04:18:22;19.75;;;7.80;;
44204;SDS011;30163;42.698;23.344;2023-08-17T04:20:47;33.40;;;9.85;;
44204;SDS011;30163;42.698;23.344;2023-08-17T04:23:13;28.27;;;8.68;;
44204;SDS011;30163;42.698;23.344;2023-08-17T04:25:38;29.45;;;8.40;;
44204;SDS011;30163;42.698;23.344;2023-08-17T04:28:04;18.15;;;8.40;;
44204;SDS011;30163;42.698;23.344;2023-08-17T04:30:29;21.48;;;7.15;;
44204;SDS011;30163;42.698;23.344;2023-08-17T04:32:55;26.40;;;8.45;;
44204;SDS011;30163;42.698;23.344;2023-08-17T04:35:20;24.23;;;7.57;;
44204;SDS011;30163;42.698;23.344;2023-08-17T04:37:46;23.52;;;8.23;;
44204;SDS011;30163;42.698;23.344;2023-08-17T04:40:12;16.13;;;7.15;;
44204;SDS011;30163;42.698;23.344;2023-08-17T04:42:37;16.77;;;6.78;;
44204;SDS011;30163;42.698;23.344;2023-08-17T04:45:03;14.13;;;7.10;;
44204;SDS011;30163;42.698;23.344;2023-08-17T04:47:29;22.90;;;7.32;;
44204;SDS011;30163;42.698;23.344;2023-08-17T04:49:54;16.65;;;7.03;;
44204;SDS011;30163;42.698;23.344;2023-08-17T04:52:20;35.95;;;7.20;;
44204;SDS011;30163;42.698;23.344;2023-08-17T04:54:45;14.65;;;7.43;;
44204;SDS011;30163;42.698;23.344;2023-08-17T04:57:10;24.77;;;7.40;;
44204;SDS011;30163;42.698;23.344;2023-08-17T04:59:36;17.90;;;6.55;;
44204;SDS011;30163;42.698;23.344;2023-08-17T05:02:01;29.67;;;6.32;;
44204;SDS011;30163;42.698;23.344;2023-08-17T05:04:27;19.38;;;6.65;;
44204;SDS011;30163;42.698;23.344;2023-08-17T05:06:55;24.50;;;6.50;;
44204;SDS011;30163;42.698;23.344;2023-08-17T05:09:20;12.85;;;5.97;;
44204;SDS011;30163;42.698;23.344;2023-08-17T05:11:46;17.08;;;6.20;;
44204;SDS011;30163;42.698;23.344;2023-08-17T05:14:11;15.90;;;5.50;;
44204;SDS011;30163;42.698;23.344;2023-08-17T05:16:37;12.32;;;6.03;;
44204;SDS011;30163;42.698;23.344;2023-08-17T05:19:02;13.07;;;5.85;;
44204;SDS011;30163;42.698;23.344;2023-08-17T05:21:28;16.63;;;6.43;;
44204;SDS011;30163;42.698;23.344;2023-08-17T05:23:54;22.63;;;6.80;;
44204;SDS011;30163;42.698;23.344;2023-08-17T05:26:20;18.83;;;7.25;;
44204;SDS011;30163;42.698;23.344;2023-08-17T05:28:46;13.77;;;6.75;;
44204;SDS011;30163;42.698;23.344;2023-08-17T05:31:11;19.50;;;6.20;;
44204;SDS011;30163;42.698;23.344;2023-08-17T05:33:37;13.48;;;6.38;;
44204;SDS011;30163;42.698;23.344;2023-08-17T05:36:02;26.17;;;6.57;;
44204;SDS011;30163;42.698;23.344;2023-08-17T05:38:28;24.90;;;6.70;;
44204;SDS011;30163;42.698;23.344;2023-08-17T05:40:57;19.35;;;6.75;;
44204;SDS011;30163;42.698;23.344;2023-08-17T05:43:23;20.58;;;7.00;;
44204;SDS011;30163;42.698;23.344;2023-08-17T05:45:49;18.05;;;4.80;;
44204;SDS011;30163;42.698;23.344;2023-08-17T05:48:14;18.65;;;5.80;;
44204;SDS011;30163;42.698;23.344;2023-08-17T05:50:43;18.90;;;5.22;;
44204;SDS011;30163;42.698;23.344;2023-08-17T05:53:09;15.40;;;5.95;;
44204;SDS011;30163;42.698;23.344;2023-08-17T05:55:34;9.00;;;4.72;;
44204;SDS011;30163;42.698;23.344;2023-08-17T05:57:59;20.63;;;4.88;;
44204;SDS011;30163;42.698;23.344;2023-08-17T06:00:25;13.15;;;5.35;;
44204;SDS011;30163;42.698;23.344;2023-08-17T06:02:51;17.00;;;5.80;;
44204;SDS011;30163;42.698;23.344;2023-08-17T06:05:17;14.27;;;6.50;;
44204;SDS011;30163;42.698;23.344;2023-08-17T06:07:42;22.13;;;6.47;;
44204;SDS011;30163;42.698;23.344;2023-08-17T06:10:08;16.88;;;6.35;;
44204;SDS011;30163;42.698;23.344;2023-08-17T06:12:34;21.48;;;7.38;;
44204;SDS011;30163;42.698;23.344;2023-08-17T06:15:01;15.05;;;7.53;;
44204;SDS011;30163;42.698;23.344;2023-08-17T06:17:28;15.27;;;7.50;;
44204;SDS011;30163;42.698;23.344;2023-08-17T06:19:53;17.38;;;7.72;;
44204;SDS011;30163;42.698;23.344;2023-08-17T06:22:19;12.48;;;8.18;;
44204;SDS011;30163;42.698;23.344;2023-08-17T06:24:44;16.48;;;8.30;;
44204;SDS011;30163;42.698;23.344;2023-08-17T06:27:13;20.17;;;9.68;;
44204;SDS011;30163;42.698;23.344;2023-08-17T06:29:39;23.70;;;8.40;;
44204;SDS011;30163;42.698;23.344;2023-08-17T06:32:05;26.60;;;8.40;;
44204;SDS011;30163;42.698;23.344;2023-08-17T06:34:30;21.05;;;9.45;;
44204;SDS011;30163;42.698;23.344;2023-08-17T06:37:01;13.45;;;8.75;;
44204;SDS011;30163;42.698;23.344;2023-08-17T06:39:27;20.10;;;8.88;;
44204;SDS011;30163;42.698;23.344;2023-08-17T06:41:53;19.70;;;7.80;;
44204;SDS011;30163;42.698;23.344;2023-08-17T06:44:19;18.77;;;7.45;;
44204;SDS011;30163;42.698;23.344;2023-08-17T06:46:44;18.17;;;7.97;;
44204;SDS011;30163;42.698;23.344;2023-08-17T06:49:11;19.92;;;7.40;;
44204;SDS011;30163;42.698;23.344;2023-08-17T06:51:37;14.30;;;6.97;;
44204;SDS011;30163;42.698;23.344;2023-08-17T06:54:03;17.98;;;7.53;;
44204;SDS011;30163;42.698;23.344;2023-08-17T06:56:29;16.20;;;6.97;;
44204;SDS011;30163;42.698;23.344;2023-08-17T06:58:54;15.00;;;6.90;;
44204;SDS011;30163;42.698;23.344;2023-08-17T07:01:20;24.08;;;7.80;;
44204;SDS011;30163;42.698;23.344;2023-08-17T07:03:45;16.50;;;7.15;;
44204;SDS011;30163;42.698;23.344;2023-08-17T07:06:11;13.77;;;6.47;;
44204;SDS011;30163;42.698;23.344;2023-08-17T07:08:36;15.50;;;7.00;;
44204;SDS011;30163;42.698;23.344;2023-08-17T07:11:01;28.77;;;6.88;;
44204;SDS011;30163;42.698;23.344;2023-08-17T07:13:29;11.52;;;5.25;;
44204;SDS011;30163;42.698;23.344;2023-08-17T07:15:54;17.90;;;6.32;;
44204;SDS011;30163;42.698;23.344;2023-08-17T07:18:19;18.90;;;5.53;;
44204;SDS011;30163;42.698;23.344;2023-08-17T07:20:45;22.80;;;5.80;;
44204;SDS011;30163;42.698;23.344;2023-08-17T07:23:10;7.97;;;4.43;;
44204;SDS011;30163;42.698;23.344;2023-08-17T07:25:36;11.77;;;5.00;;
44204;SDS011;30163;42.698;23.344;2023-08-17T07:28:01;9.48;;;5.72;;
44204;SDS011;30163;42.698;23.344;2023-08-17T07:30:26;12.40;;;5.38;;
44204;SDS011;30163;42.698;23.344;2023-08-17T07:32:52;8.70;;;5.07;;
44204;SDS011;30163;42.698;23.344;2023-08-17T07:35:17;14.95;;;5.50;;
44204;SDS011;30163;42.698;23.344;2023-08-17T07:37:43;8.85;;;4.55;;
44204;SDS011;30163;42.698;23.344;2023-08-17T07:40:08;20.05;;;5.15;;
44204;SDS011;30163;42.698;23.344;2023-08-17T07:42:34;13.68;;;5.18;;
44204;SDS011;30163;42.698;23.344;2023-08-17T07:44:59;8.05;;;4.50;;
44204;SDS011;30163;42.698;23.344;2023-08-17T07:47:26;9.65;;;5.05;;
44204;SDS011;30163;42.698;23.344;2023-08-17T07:49:51;11.68;;;5.05;;
44204;SDS011;30163;42.698;23.344;2023-08-17T07:52:17;11.82;;;5.22;;
44204;SDS011;30163;42.698;23.344;2023-08-17T07:54:42;11.88;;;5.55;;
44204;SDS011;30163;42.698;23.344;2023-08-17T07:57:07;9.25;;;5.28;;
44204;SDS011;30163;42.698;23.344;2023-08-17T07:59:33;16.15;;;5.35;;
44204;SDS011;30163;42.698;23.344;2023-08-17T08:01:58;9.52;;;5.20;;
44204;SDS011;30163;42.698;23.344;2023-08-17T08:04:24;16.35;;;5.38;;
44204;SDS011;30163;42.698;23.344;2023-08-17T08:06:49;8.52;;;4.43;;
44204;SDS011;30163;42.698;23.344;2023-08-17T08:09:14;14.02;;;4.40;;
44204;SDS011;30163;42.698;23.344;2023-08-17T08:11:40;9.15;;;4.45;;
44204;SDS011;30163;42.698;23.344;2023-08-17T08:14:05;8.45;;;4.82;;
44204;SDS011;30163;42.698;23.344;2023-08-17T08:16:31;7.80;;;4.88;;
44204;SDS011;30163;42.698;23.344;2023-08-17T08:18:56;18.75;;;4.78;;
44204;SDS011;30163;42.698;23.344;2023-08-17T08:21:22;8.40;;;4.15;;
44204;SDS011;30163;42.698;23.344;2023-08-17T08:23:47;16.73;;;3.95;;
44204;SDS011;30163;42.698;23.344;2023-08-17T08:26:13;9.60;;;3.60;;
44204;SDS011;30163;42.698;23.344;2023-08-17T08:28:39;10.13;;;4.32;;
44204;SDS011;30163;42.698;23.344;2023-08-17T08:31:04;12.57;;;4.10;;
44204;SDS011;30163;42.698;23.344;2023-08-17T08:33:30;9.05;;;4.28;;
44204;SDS011;30163;42.698;23.344;2023-08-17T08:35:56;15.48;;;4.68;;
44204;SDS011;30163;42.698;23.344;2023-08-17T08:38:21;16.98;;;5.38;;
44204;SDS011;30163;42.698;23.344;2023-08-17T08:40:47;10.40;;;4.40;;
44204;SDS011;30163;42.698;23.344;2023-08-17T08:43:12;11.50;;;4.30;;
44204;SDS011;30163;42.698;23.344;2023-08-17T08:45:38;7.70;;;4.70;;
44204;SDS011;30163;42.698;23.344;2023-08-17T08:48:07;7.38;;;4.10;;
44204;SDS011;30163;42.698;23.344;2023-08-17T08:50:34;9.25;;;3.72;;
44204;SDS011;30163;42.698;23.344;2023-08-17T08:53:01;15.93;;;4.03;;
44204;SDS011;30163;42.698;23.344;2023-08-17T08:55:30;23.75;;;4.00;;
44204;SDS011;30163;42.698;23.344;2023-08-17T08:57:59;10.13;;;4.13;;
44204;SDS011;30163;42.698;23.344;2023-08-17T09:00:26;7.53;;;4.32;;
44204;SDS011;30163;42.698;23.344;2023-08-17T09:02:51;10.57;;;4.22;;
44204;SDS011;30163;42.698;23.344;2023-08-17T09:05:17;9.70;;;4.07;;
44204;SDS011;30163;42.698;23.344;2023-08-17T09:07:43;11.95;;;4.13;;
44204;SDS011;30163;42.698;23.344;2023-08-17T09:10:11;9.43;;;3.85;;
44204;SDS011;30163;42.698;23.344;2023-08-17T09:12:39;15.38;;;4.05;;
44204;SDS011;30163;42.698;23.344;2023-08-17T09:15:04;10.45;;;3.90;;
44204;SDS011;30163;42.698;23.344;2023-08-17T09:17:32;7.88;;;4.05;;
44204;SDS011;30163;42.698;23.344;2023-08-17T09:19:59;11.45;;;5.07;;
44204;SDS011;30163;42.698;23.344;2023-08-17T09:22:25;9.32;;;4.55;;
44204;SDS011;30163;42.698;23.344;2023-08-17T09:25:02;18.05;;;4.72;;
44204;SDS011;30163;42.698;23.344;2023-08-17T09:27:31;11.65;;;3.95;;
44204;SDS011;30163;42.698;23.344;2023-08-17T09:30:04;9.52;;;3.80;;
44204;SDS011;30163;42.698;23.344;2023-08-17T09:32:36;7.75;;;3.83;;
44204;SDS011;30163;42.698;23.344;2023-08-17T09:35:02;9.05;;;4.15;;
44204;SDS011;30163;42.698;23.344;2023-08-17T09:37:38;9.95;;;4.40;;
44204;SDS011;30163;42.698;23.344;2023-08-17T09:40:04;8.75;;;3.75;;
44204;SDS011;30163;42.698;23.344;2023-08-17T09:42:29;20.30;;;3.47;;
44204;SDS011;30163;42.698;23.344;2023-08-17T09:44:57;7.43;;;3.40;;
44204;SDS011;30163;42.698;23.344;2023-08-17T09:47:26;5.43;;;2.90;;
44204;SDS011;30163;42.698;23.344;2023-08-17T09:49:52;10.05;;;3.33;;
44204;SDS011;30163;42.698;23.344;2023-08-17T09:52:18;16.63;;;3.63;;
44204;SDS011;30163;42.698;23.344;2023-08-17T09:54:45;14.02;;;2.88;;
44204;SDS011;30163;42.698;23.344;2023-08-17T09:57:12;4.70;;;2.50;;
44204;SDS011;30163;42.698;23.344;2023-08-17T09:59:37;12.75;;;3.30;;
44204;SDS011;30163;42.698;23.344;2023-08-17T10:02:03;5.85;;;3.90;;
44204;SDS011;30163;42.698;23.344;2023-08-17T10:04:28;6.57;;;2.50;;
44204;SDS011;30163;42.698;23.344;2023-08-17T10:06:59;6.78;;;2.20;;
44204;SDS011;30163;42.698;23.344;2023-08-17T10:09:28;7.63;;;3.95;;
44204;SDS011;30163;42.698;23.344;2023-08-17T10:12:02;13.88;;;3.22;;
44204;SDS011;30163;42.698;23.344;2023-08-17T10:14:36;7.00;;;3.00;;
44204;SDS011;30163;42.698;23.344;2023-08-17T10:17:07;6.95;;;3.83;;
44204;SDS011;30163;42.698;23.344;2023-08-17T10:19:59;10.38;;;3.90;;
44204;SDS011;30163;42.698;23.344;2023-08-17T10:25:05;7.20;;;3.00;;
44204;SDS011;30163;42.698;23.344;2023-08-17T10:27:37;7.75;;;2.60;;
44204;SDS011;30163;42.698;23.344;2023-08-17T10:30:02;11.35;;;2.78;;
44204;SDS011;30163;42.698;23.344;2023-08-17T10:32:28;7.47;;;2.75;;
44204;SDS011;30163;42.698;23.344;2023-08-17T10:34:53;4.25;;;2.67;;
44204;SDS011;30163;42.698;23.344;2023-08-17T10:37:19;8.55;;;3.15;;
44204;SDS011;30163;42.698;23.344;2023-08-17T10:39:46;13.70;;;3.15;;
44204;SDS011;30163;42.698;23.344;2023-08-17T10:42:12;5.13;;;2.95;;
44204;SDS011;30163;42.698;23.344;2023-08-17T10:44:45;5.68;;;2.85;;
44204;SDS011;30163;42.698;23.344;2023-08-17T10:49:57;9.50;;;3.65;;
44204;SDS011;30163;42.698;23.344;2023-08-17T10:52:30;10.82;;;3.85;;
44204;SDS011;30163;42.698;23.344;2023-08-17T10:54:58;25.17;;;3.40;;
44204;SDS011;30163;42.698;23.344;2023-08-17T10:57:27;13.70;;;3.20;;
44204;SDS011;30163;42.698;23.344;2023-08-17T11:00:12;7.63;;;3.30;;
44204;SDS011;30163;42.698;23.344;2023-08-17T11:02:57;9.88;;;3.13;;
44204;SDS011;30163;42.698;23.344;2023-08-17T11:05:44;5.28;;;2.90;;
44204;SDS011;30163;42.698;23.344;2023-08-17T11:08:20;8.63;;;3.20;;
44204;SDS011;30163;42.698;23.344;2023-08-17T11:13:25;7.55;;;3.42;;
44204;SDS011;30163;42.698;23.344;2023-08-17T11:15:53;11.85;;;3.40;;
44204;SDS011;30163;42.698;23.344;2023-08-17T11:18:18;8.82;;;3.53;;
44204;SDS011;30163;42.698;23.344;2023-08-17T11:20:43;13.00;;;3.90;;
44204;SDS011;30163;42.698;23.344;2023-08-17T11:23:10;6.55;;;3.25;;
44204;SDS011;30163;42.698;23.344;2023-08-17T11:25:36;8.90;;;3.40;;
44204;SDS011;30163;42.698;23.344;2023-08-17T11:28:02;11.57;;;4.03;;
44204;SDS011;30163;42.698;23.344;2023-08-17T11:30:28;8.40;;;3.47;;
44204;SDS011;30163;42.698;23.344;2023-08-17T11:32:54;7.75;;;3.22;;
44204;SDS011;30163;42.698;23.344;2023-08-17T11:35:20;9.02;;;3.22;;
44204;SDS011;30163;42.698;23.344;2023-08-17T11:37:46;5.03;;;3.13;;
44204;SDS011;30163;42.698;23.344;2023-08-17T11:40:13;12.20;;;3.80;;
44204;SDS011;30163;42.698;23.344;2023-08-17T11:42:39;8.43;;;3.40;;
44204;SDS011;30163;42.698;23.344;2023-08-17T11:45:05;5.93;;;3.35;;
44204;SDS011;30163;42.698;23.344;2023-08-17T11:47:34;13.02;;;3.20;;
44204;SDS011;30163;42.698;23.344;2023-08-17T11:50:01;5.10;;;3.00;;
44204;SDS011;30163;42.698;23.344;2023-08-17T11:52:27;12.57;;;3.50;;
44204;SDS011;30163;42.698;23.344;2023-08-17T11:54:56;10.63;;;3.10;;
44204;SDS011;30163;42.698;23.344;2023-08-17T11:57:22;12.98;;;3.25;;
44204;SDS011;30163;42.698;23.344;2023-08-17T11:59:48;9.38;;;2.92;;
44204;SDS011;30163;42.698;23.344;2023-08-17T12:02:16;8.63;;;3.35;;
44204;SDS011;30163;42.698;23.344;2023-08-17T12:04:43;10.75;;;3.97;;
44204;SDS011;30163;42.698;23.344;2023-08-17T12:07:09;8.20;;;3.00;;
44204;SDS011;30163;42.698;23.344;2023-08-17T12:09:34;7.95;;;3.40;;
44204;SDS011;30163;42.698;23.344;2023-08-17T12:12:00;12.88;;;3.50;;
44204;SDS011;30163;42.698;23.344;2023-08-17T12:14:27;11.10;;;3.20;;
44204;SDS011;30163;42.698;23.344;2023-08-17T12:16:53;9.38;;;3.22;;
44204;SDS011;30163;42.698;23.344;2023-08-17T12:19:19;11.18;;;4.28;;
44204;SDS011;30163;42.698;23.344;2023-08-17T12:21:45;12.68;;;3.95;;
44204;SDS011;30163;42.698;23.344;2023-08-17T12:24:11;9.65;;;4.63;;
44204;SDS011;30163;42.698;23.344;2023-08-17T12:26:43;6.25;;;4.63;;
44204;SDS011;30163;42.698;23.344;2023-08-17T12:29:08;12.70;;;5.05;;
44204;SDS011;30163;42.698;23.344;2023-08-17T12:31:34;6.55;;;4.03;;
44204;SDS011;30163;42.698;23.344;2023-08-17T12:34:00;8.18;;;4.80;;
44204;SDS011;30163;42.698;23.344;2023-08-17T12:36:26;15.60;;;4.88;;
44204;SDS011;30163;42.698;23.344;2023-08-17T12:38:51;7.25;;;4.68;;
44204;SDS011;30163;42.698;23.344;2023-08-17T12:41:16;16.25;;;5.00;;
44204;SDS011;30163;42.698;23.344;2023-08-17T12:43:42;9.20;;;4.32;;
44204;SDS011;30163;42.698;23.344;2023-08-17T12:46:08;8.90;;;4.28;;
44204;SDS011;30163;42.698;23.344;2023-08-17T12:48:33;9.77;;;4.93;;
44204;SDS011;30163;42.698;23.344;2023-08-17T12:50:59;10.10;;;5.50;;
44204;SDS011;30163;42.698;23.344;2023-08-17T12:53:24;10.45;;;5.03;;
44204;SDS011;30163;42.698;23.344;2023-08-17T12:55:50;8.65;;;4.65;;
44204;SDS011;30163;42.698;23.344;2023-08-17T12:58:15;15.63;;;4.78;;
44204;SDS011;30163;42.698;23.344;2023-08-17T13:00:40;14.63;;;4.68;;
44204;SDS011;30163;42.698;23.344;2023-08-17T13:03:06;10.18;;;4.47;;
44204;SDS011;30163;42.698;23.344;2023-08-17T13:05:32;8.63;;;4.78;;
44204;SDS011;30163;42.698;23.344;2023-08-17T13:08:00;8.95;;;4.50;;
44204;SDS011;30163;42.698;23.344;2023-08-17T13:10:27;12.27;;;4.97;;
44204;SDS011;30163;42.698;23.344;2023-08-17T13:12:52;8.50;;;3.92;;
44204;SDS011;30163;42.698;23.344;2023-08-17T13:15:21;7.13;;;4.68;;
44204;SDS011;30163;42.698;23.344;2023-08-17T13:17:47;12.40;;;4.65;;
44204;SDS011;30163;42.698;23.344;2023-08-17T13:20:13;7.72;;;4.15;;
44204;SDS011;30163;42.698;23.344;2023-08-17T13:22:38;11.23;;;4.95;;
44204;SDS011;30163;42.698;23.344;2023-08-17T13:25:04;10.00;;;4.97;;
44204;SDS011;30163;42.698;23.344;2023-08-17T13:27:30;8.45;;;4.28;;
44204;SDS011;30163;42.698;23.344;2023-08-17T13:29:56;12.60;;;4.57;;
44204;SDS011;30163;42.698;23.344;2023-08-17T13:32:25;9.55;;;4.65;;
44204;SDS011;30163;42.698;23.344;2023-08-17T13:34:50;11.43;;;4.68;;
44204;SDS011;30163;42.698;23.344;2023-08-17T13:37:16;8.10;;;4.70;;
44204;SDS011;30163;42.698;23.344;2023-08-17T13:39:42;11.90;;;4.75;;
44204;SDS011;30163;42.698;23.344;2023-08-17T13:42:08;7.00;;;4.05;;
44204;SDS011;30163;42.698;23.344;2023-08-17T13:44:33;8.40;;;4.97;;
44204;SDS011;30163;42.698;23.344;2023-08-17T13:46:59;10.60;;;4.57;;
44204;SDS011;30163;42.698;23.344;2023-08-17T13:49:24;8.85;;;5.03;;
44204;SDS011;30163;42.698;23.344;2023-08-17T13:51:49;8.18;;;4.25;;
44204;SDS011;30163;42.698;23.344;2023-08-17T13:54:15;9.43;;;3.95;;
44204;SDS011;30163;42.698;23.344;2023-08-17T13:56:40;5.38;;;4.13;;
44204;SDS011;30163;42.698;23.344;2023-08-17T13:59:05;12.73;;;4.53;;
44204;SDS011;30163;42.698;23.344;2023-08-17T14:01:31;8.82;;;4.30;;
44204;SDS011;30163;42.698;23.344;2023-08-17T14:03:56;12.88;;;4.38;;
44204;SDS011;30163;42.698;23.344;2023-08-17T14:06:22;10.05;;;4.78;;
44204;SDS011;30163;42.698;23.344;2023-08-17T14:08:47;9.45;;;3.95;;
44204;SDS011;30163;42.698;23.344;2023-08-17T14:11:15;12.68;;;4.50;;
44204;SDS011;30163;42.698;23.344;2023-08-17T14:13:41;11.00;;;4.30;;
44204;SDS011;30163;42.698;23.344;2023-08-17T14:16:06;7.07;;;3.80;;
44204;SDS011;30163;42.698;23.344;2023-08-17T14:18:32;9.63;;;4.30;;
44204;SDS011;30163;42.698;23.344;2023-08-17T14:20:57;5.72;;;3.85;;
44204;SDS011;30163;42.698;23.344;2023-08-17T14:23:22;11.23;;;4.47;;
44204;SDS011;30163;42.698;23.344;2023-08-17T14:25:48;14.13;;;4.47;;
44204;SDS011;30163;42.698;23.344;2023-08-17T14:28:13;7.93;;;4.10;;
44204;SDS011;30163;42.698;23.344;2023-08-17T14:30:39;12.90;;;4.47;;